createdAt,value
2023-04-20T00:02:13.741Z,4.53
2023-04-20T00:04:40.819Z,3.55
2023-04-20T00:07:07.698Z,3.05
2023-04-20T00:09:34.094Z,3.47
2023-04-20T00:12:00.472Z,4.18
2023-04-20T00:14:26.761Z,2.90
2023-04-20T00:16:53.272Z,3.50
2023-04-20T00:19:21.043Z,3.45
2023-04-20T00:21:47.823Z,3.05
2023-04-20T00:24:14.369Z,2.30
2023-04-20T00:26:40.679Z,3.05
2023-04-20T00:29:06.978Z,3.83
2023-04-20T00:31:33.289Z,4.00
2023-04-20T00:33:59.571Z,4.88
2023-04-20T00:36:26.874Z,3.58
2023-04-20T00:38:53.206Z,3.33
2023-04-20T00:41:19.556Z,4.28
2023-04-20T00:43:49.762Z,2.28
2023-04-20T00:46:16.700Z,5.35
2023-04-20T00:48:43.048Z,3.72
2023-04-20T00:51:09.412Z,3.50
2023-04-20T00:53:36.198Z,2.95
2023-04-20T00:56:02.498Z,2.63
2023-04-20T00:58:28.869Z,3.15
2023-04-20T01:00:55.245Z,2.83
2023-04-20T01:03:22.686Z,4.35
2023-04-20T01:05:49.342Z,3.30
2023-04-20T01:08:15.643Z,2.92
2023-04-20T01:10:41.982Z,3.88
2023-04-20T01:13:08.305Z,2.70
2023-04-20T01:15:35.287Z,3.33
2023-04-20T01:18:02.966Z,4.75
2023-04-20T01:20:29.510Z,3.45
2023-04-20T01:22:55.786Z,3.13
2023-04-20T01:25:22.297Z,2.95
2023-04-20T01:27:48.832Z,3.85
2023-04-20T01:30:15.537Z,3.05
2023-04-20T01:32:41.989Z,3.15
2023-04-20T01:35:08.702Z,2.95
2023-04-20T01:37:35.055Z,6.28
2023-04-20T01:40:01.600Z,3.35
2023-04-20T01:42:28.017Z,2.85
2023-04-20T01:44:54.396Z,3.83
2023-04-20T01:47:20.709Z,2.72
2023-04-20T01:49:46.994Z,3.45
2023-04-20T01:52:13.405Z,2.67
2023-04-20T01:54:39.823Z,3.03
2023-04-20T01:57:06.239Z,2.60
2023-04-20T01:59:32.516Z,2.20
2023-04-20T02:01:58.941Z,2.33
2023-04-20T02:04:25.329Z,3.15
2023-04-20T02:06:51.643Z,4.13
2023-04-20T02:09:18.207Z,3.13
2023-04-20T02:11:44.594Z,3.08
2023-04-20T02:14:11.041Z,4.28
2023-04-20T02:16:37.690Z,3.88
2023-04-20T02:19:04.124Z,3.08
2023-04-20T02:21:31.475Z,2.97
2023-04-20T02:23:57.932Z,3.00
2023-04-20T02:26:24.545Z,4.35
2023-04-20T02:28:50.891Z,3.10
2023-04-20T02:31:17.279Z,2.40
2023-04-20T02:33:44.135Z,2.60
2023-04-20T02:36:10.463Z,3.88
2023-04-20T02:38:37.933Z,2.55
2023-04-20T02:41:04.239Z,2.90
2023-04-20T02:43:30.632Z,3.90
2023-04-20T02:45:56.942Z,3.30
2023-04-20T02:48:23.283Z,3.60
2023-04-20T02:50:49.617Z,4.25
2023-04-20T02:53:16.219Z,2.85
2023-04-20T02:55:42.518Z,2.40
2023-04-20T02:58:08.911Z,4.25
2023-04-20T03:00:35.494Z,2.60
2023-04-20T03:03:01.849Z,2.88
2023-04-20T03:05:28.215Z,2.75
2023-04-20T03:07:54.560Z,3.75
2023-04-20T03:10:20.918Z,2.22
2023-04-20T03:12:47.319Z,1.85
2023-04-20T03:15:13.747Z,3.90
2023-04-20T03:17:40.133Z,4.20
2023-04-20T03:20:07.310Z,3.03
2023-04-20T03:22:33.574Z,3.17
2023-04-20T03:25:00.026Z,2.78
2023-04-20T03:27:26.338Z,2.90
2023-04-20T03:29:52.775Z,2.55
2023-04-20T03:32:19.033Z,4.57
2023-04-20T03:34:45.330Z,3.75
2023-04-20T03:37:11.683Z,2.42
2023-04-20T03:39:37.946Z,3.00
2023-04-20T03:42:04.290Z,3.35
2023-04-20T03:44:30.664Z,2.65
2023-04-20T03:46:57.014Z,3.17
2023-04-20T03:49:24.363Z,2.30
2023-04-20T03:51:50.904Z,3.00
2023-04-20T03:54:17.245Z,2.97
2023-04-20T03:56:45.982Z,3.40
2023-04-20T03:59:12.317Z,4.57
2023-04-20T04:01:39.253Z,3.03
2023-04-20T04:04:05.937Z,3.45
2023-04-20T04:06:32.696Z,3.40
2023-04-20T04:08:59.014Z,2.72
2023-04-20T04:11:26.050Z,2.92
2023-04-20T04:13:52.471Z,2.85
2023-04-20T04:16:18.873Z,3.40
2023-04-20T04:18:45.486Z,4.60
2023-04-20T04:21:11.987Z,3.92
2023-04-20T04:23:38.419Z,3.35
2023-04-20T04:26:05.757Z,5.20
2023-04-20T04:28:32.094Z,2.95
2023-04-20T04:31:01.400Z,3.38
2023-04-20T04:33:27.823Z,3.13
2023-04-20T04:35:55.305Z,4.00
2023-04-20T04:38:21.666Z,2.95
2023-04-20T04:40:48.037Z,2.60
2023-04-20T04:43:14.418Z,4.05
2023-04-20T04:45:41.045Z,3.28
2023-04-20T04:48:09.645Z,2.97
2023-04-20T04:50:36.074Z,2.33
2023-04-20T04:53:02.390Z,3.80
2023-04-20T04:55:28.725Z,3.13
2023-04-20T04:57:55.085Z,3.95
2023-04-20T05:00:22.332Z,3.17
2023-04-20T05:02:48.862Z,3.35
2023-04-20T05:05:15.579Z,3.67
2023-04-20T05:07:41.847Z,5.40
2023-04-20T05:10:08.451Z,2.75
2023-04-20T05:12:34.801Z,3.20
2023-04-20T05:15:01.090Z,3.33
2023-04-20T05:17:27.479Z,3.22
2023-04-20T05:19:53.865Z,2.65
2023-04-20T05:22:20.719Z,3.05
2023-04-20T05:24:47.094Z,3.28
2023-04-20T05:27:13.433Z,3.30
2023-04-20T05:29:39.779Z,3.85
2023-04-20T05:32:06.214Z,5.15
2023-04-20T05:34:32.658Z,3.72
2023-04-20T05:36:59.223Z,3.78
2023-04-20T05:39:25.540Z,3.50
2023-04-20T05:41:51.960Z,4.90
2023-04-20T05:44:18.224Z,5.03
2023-04-20T05:46:44.586Z,4.47
2023-04-20T05:49:11.009Z,3.30
2023-04-20T05:51:37.394Z,4.28
2023-04-20T05:54:03.984Z,3.95
2023-04-20T05:56:30.633Z,4.35
2023-04-20T05:58:57.220Z,3.92
2023-04-20T06:01:23.640Z,3.88
2023-04-20T06:03:50.216Z,3.63
2023-04-20T06:06:16.999Z,3.20
2023-04-20T06:08:43.416Z,6.28
2023-04-20T06:11:09.852Z,5.57
2023-04-20T06:13:36.198Z,3.72
2023-04-20T06:16:02.497Z,7.15
2023-04-20T06:18:29.217Z,4.93
2023-04-20T06:20:55.641Z,5.70
2023-04-20T06:23:22.038Z,7.30
2023-04-20T06:25:48.312Z,7.43
2023-04-20T06:28:14.671Z,8.00
2023-04-20T06:30:40.981Z,5.53
2023-04-20T06:33:08.033Z,5.03
2023-04-20T06:35:35.178Z,8.77
2023-04-20T06:38:02.550Z,10.30
2023-04-20T06:40:29.174Z,5.03
2023-04-20T06:42:55.477Z,7.90
2023-04-20T06:45:21.852Z,5.88
2023-04-20T06:47:48.272Z,6.57
2023-04-20T06:50:14.679Z,7.45
2023-04-20T06:52:41.254Z,6.85
2023-04-20T06:55:07.811Z,4.90
2023-04-20T06:57:34.174Z,6.38
2023-04-20T07:00:00.594Z,7.25
2023-04-20T07:02:27.336Z,5.22
2023-04-20T07:04:53.977Z,6.00
2023-04-20T07:07:20.354Z,5.22
2023-04-20T07:09:46.720Z,5.90
2023-04-20T07:12:15.768Z,5.53
2023-04-20T07:14:42.220Z,4.80
2023-04-20T07:17:08.566Z,5.40
2023-04-20T07:19:35.210Z,5.72
2023-04-20T07:22:01.447Z,5.00
2023-04-20T07:24:29.066Z,5.68
2023-04-20T07:26:55.738Z,5.05
2023-04-20T07:29:22.074Z,6.40
2023-04-20T07:31:48.500Z,6.63
2023-04-20T07:34:14.857Z,5.40
2023-04-20T07:36:41.155Z,6.25
2023-04-20T07:39:07.525Z,7.50
2023-04-20T07:41:34.000Z,4.30
2023-04-20T07:44:00.384Z,6.30
2023-04-20T07:46:28.339Z,6.03
2023-04-20T07:48:54.654Z,5.45
2023-04-20T07:51:21.040Z,5.35
2023-04-20T07:53:49.744Z,4.10
2023-04-20T07:56:16.062Z,5.45
2023-04-20T07:58:42.374Z,4.72
2023-04-20T08:01:08.677Z,6.63
2023-04-20T08:03:35.598Z,5.38
2023-04-20T08:06:02.287Z,4.68
2023-04-20T08:08:29.737Z,6.55
2023-04-20T08:10:56.798Z,5.57
2023-04-20T08:13:23.060Z,5.90
2023-04-20T08:15:49.475Z,7.00
2023-04-20T08:18:15.921Z,6.25
2023-04-20T08:20:42.373Z,5.15
2023-04-20T08:23:08.736Z,5.88
2023-04-20T08:25:35.350Z,6.47
2023-04-20T08:28:01.798Z,6.07
2023-04-20T08:30:28.962Z,6.68
2023-04-20T08:32:55.459Z,5.05
2023-04-20T08:35:21.840Z,6.30
2023-04-20T08:37:48.224Z,8.75
2023-04-20T08:40:15.707Z,7.30
2023-04-20T08:42:42.016Z,8.15
2023-04-20T08:45:08.617Z,7.93
2023-04-20T08:47:35.629Z,6.28
2023-04-20T08:50:03.801Z,5.43
2023-04-20T08:52:30.114Z,6.68
2023-04-20T08:54:57.837Z,6.18
2023-04-20T08:57:24.939Z,6.70
2023-04-20T08:59:51.886Z,5.25
2023-04-20T09:02:18.434Z,5.25
2023-04-20T09:04:48.898Z,5.28
2023-04-20T09:07:19.501Z,6.47
2023-04-20T09:09:53.813Z,5.38
2023-04-20T09:12:22.128Z,6.32
2023-04-20T09:14:49.101Z,8.30
2023-04-20T09:17:17.660Z,6.55
2023-04-20T09:19:44.740Z,6.18
2023-04-20T09:22:13.883Z,7.88
2023-04-20T09:24:41.238Z,7.47
2023-04-20T09:27:17.844Z,8.35
2023-04-20T09:29:44.461Z,6.95
2023-04-20T09:32:23.543Z,6.97
2023-04-20T09:34:49.967Z,6.63
2023-04-20T09:37:16.884Z,6.57
2023-04-20T09:39:43.795Z,8.13
2023-04-20T09:42:13.813Z,6.85
2023-04-20T09:44:42.526Z,7.53
2023-04-20T09:47:09.368Z,6.68
2023-04-20T09:49:35.863Z,6.38
2023-04-20T09:52:03.281Z,6.93
2023-04-20T09:54:30.378Z,7.03
2023-04-20T09:56:58.709Z,6.97
2023-04-20T09:59:26.347Z,8.50
2023-04-20T10:01:52.845Z,7.30
2023-04-20T10:04:19.476Z,6.40
2023-04-20T10:06:53.152Z,5.90
2023-04-20T10:09:23.623Z,7.95
2023-04-20T10:11:53.901Z,5.60
2023-04-20T10:14:25.673Z,5.75
2023-04-20T10:16:59.553Z,5.80
2023-04-20T10:19:36.347Z,6.38
2023-04-20T10:22:02.716Z,5.50
2023-04-20T10:24:29.993Z,5.65
2023-04-20T10:26:56.790Z,4.93
2023-04-20T10:29:24.835Z,5.65
2023-04-20T10:31:51.675Z,5.13
2023-04-20T10:34:19.334Z,5.20
2023-04-20T10:36:45.660Z,4.93
2023-04-20T10:39:20.053Z,4.63
2023-04-20T10:41:58.357Z,4.50
2023-04-20T10:44:24.981Z,5.72
2023-04-20T10:46:51.785Z,4.85
2023-04-20T10:49:18.787Z,6.53
2023-04-20T10:51:51.970Z,6.05
2023-04-20T10:54:18.818Z,6.93
2023-04-20T10:56:46.357Z,4.65
2023-04-20T10:59:13.693Z,5.20
2023-04-20T11:01:41.095Z,4.80
2023-04-20T11:04:07.947Z,4.85
2023-04-20T11:06:34.714Z,4.55
2023-04-20T11:09:01.144Z,4.95
2023-04-20T11:11:28.179Z,4.93
2023-04-20T11:14:10.470Z,4.18
2023-04-20T11:16:49.568Z,4.82
2023-04-20T11:19:28.252Z,5.80
2023-04-20T11:21:54.836Z,4.45
2023-04-20T11:24:22.300Z,4.95
2023-04-20T11:26:54.018Z,3.90
2023-04-20T11:29:30.214Z,4.03
2023-04-20T11:31:57.303Z,4.40
2023-04-20T11:34:24.094Z,4.38
2023-04-20T11:36:54.504Z,7.32
2023-04-20T11:39:27.273Z,4.38
2023-04-20T11:41:54.116Z,4.13
2023-04-20T11:44:21.155Z,5.97
2023-04-20T11:46:49.160Z,4.30
2023-04-20T11:49:19.203Z,3.85
2023-04-20T11:51:46.874Z,4.13
2023-04-20T11:54:13.763Z,3.80
2023-04-20T11:56:42.469Z,3.65
2023-04-20T11:59:09.132Z,3.20
2023-04-20T12:01:36.512Z,4.75
2023-04-20T12:04:03.429Z,4.00
2023-04-20T12:06:30.113Z,3.47
2023-04-20T12:08:56.497Z,3.42
2023-04-20T12:11:23.150Z,3.70
2023-04-20T12:13:49.455Z,3.90
2023-04-20T12:16:15.830Z,4.20
2023-04-20T12:18:42.734Z,4.18
2023-04-20T12:21:09.062Z,3.58
2023-04-20T12:23:36.953Z,3.45
2023-04-20T12:26:04.239Z,3.00
2023-04-20T12:28:31.046Z,3.35
2023-04-20T12:30:57.494Z,3.72
2023-04-20T12:33:23.839Z,3.13
2023-04-20T12:35:51.219Z,2.80
2023-04-20T12:38:17.600Z,2.42
2023-04-20T12:40:43.939Z,2.80
2023-04-20T12:43:10.577Z,2.60
2023-04-20T12:45:36.868Z,2.97
2023-04-20T12:48:03.276Z,2.67
2023-04-20T12:50:29.696Z,3.60
2023-04-20T12:52:58.288Z,3.63
2023-04-20T12:55:25.310Z,2.42
2023-04-20T12:57:51.749Z,2.67
2023-04-20T13:00:18.241Z,3.58
2023-04-20T13:02:44.705Z,2.90
2023-04-20T13:05:11.166Z,2.50
2023-04-20T13:07:37.470Z,2.22
2023-04-20T13:10:03.957Z,2.28
2023-04-20T13:12:30.242Z,3.55
2023-04-20T13:14:56.561Z,3.72
2023-04-20T13:17:22.868Z,3.10
2023-04-20T13:19:49.357Z,3.33
2023-04-20T13:22:18.817Z,2.55
2023-04-20T13:24:45.537Z,2.58
2023-04-20T13:27:11.931Z,3.58
2023-04-20T13:29:39.141Z,2.25
2023-04-20T13:32:05.674Z,2.08
2023-04-20T13:34:32.063Z,3.40
2023-04-20T13:36:58.393Z,3.03
2023-04-20T13:39:24.649Z,3.00
2023-04-20T13:41:53.898Z,2.42
2023-04-20T13:44:20.959Z,2.28
2023-04-20T13:46:47.462Z,2.50
2023-04-20T13:49:13.833Z,3.20
2023-04-20T13:51:40.469Z,3.33
2023-04-20T13:54:07.346Z,2.60
2023-04-20T13:56:34.189Z,3.42
2023-04-20T13:59:00.710Z,3.53
2023-04-20T14:01:27.074Z,3.35
2023-04-20T14:03:53.702Z,2.15
2023-04-20T14:06:20.323Z,1.92
2023-04-20T14:08:46.672Z,2.33
2023-04-20T14:11:12.973Z,2.17
2023-04-20T14:13:39.374Z,3.35
2023-04-20T14:16:09.720Z,1.92
2023-04-20T14:18:36.224Z,2.20
2023-04-20T14:21:02.798Z,2.08
2023-04-20T14:23:29.141Z,1.90
2023-04-20T14:25:55.724Z,2.45
2023-04-20T14:28:22.054Z,2.88
2023-04-20T14:30:48.330Z,2.63
2023-04-20T14:33:14.605Z,2.28
2023-04-20T14:35:40.891Z,1.40
2023-04-20T14:38:07.264Z,3.20
2023-04-20T14:40:33.530Z,1.83
2023-04-20T14:42:59.826Z,2.13
2023-04-20T14:45:26.164Z,2.17
2023-04-20T14:47:56.562Z,2.40
2023-04-20T14:50:23.991Z,2.50
2023-04-20T14:52:50.323Z,2.33
2023-04-20T14:55:16.681Z,3.17
2023-04-20T14:57:43.134Z,5.05
2023-04-20T15:00:10.645Z,5.35
2023-04-20T15:02:37.112Z,3.75
2023-04-20T15:05:05.441Z,4.43
2023-04-20T15:07:34.585Z,3.25
2023-04-20T15:10:00.936Z,4.47
2023-04-20T15:12:27.269Z,5.20
2023-04-20T15:14:53.559Z,4.18
2023-04-20T15:17:19.863Z,5.38
2023-04-20T15:19:46.173Z,2.45
2023-04-20T15:22:13.283Z,5.75
2023-04-20T15:24:42.298Z,4.78
2023-04-20T15:27:09.159Z,5.93
2023-04-20T15:29:35.708Z,6.38
2023-04-20T15:32:02.081Z,5.25
2023-04-20T15:34:29.807Z,6.47
2023-04-20T15:36:56.472Z,4.95
2023-04-20T15:39:22.870Z,4.13
2023-04-20T15:41:49.187Z,6.18
2023-04-20T15:44:15.837Z,4.32
2023-04-20T15:46:42.263Z,5.03
2023-04-20T15:49:08.763Z,6.05
2023-04-20T15:51:35.045Z,4.32
2023-04-20T15:54:01.645Z,4.07
2023-04-20T15:56:28.016Z,4.90
2023-04-20T15:58:54.322Z,6.32
2023-04-20T16:01:21.088Z,7.43
2023-04-20T16:03:48.377Z,4.70
2023-04-20T16:06:14.758Z,5.72
2023-04-20T16:08:41.381Z,6.18
2023-04-20T16:11:08.370Z,4.15
2023-04-20T16:13:36.289Z,3.80
2023-04-20T16:16:02.701Z,6.07
2023-04-20T16:18:29.810Z,4.03
2023-04-20T16:20:56.112Z,3.83
2023-04-20T16:23:22.406Z,3.67
2023-04-20T16:25:48.767Z,5.68
2023-04-20T16:28:15.097Z,2.95
2023-04-20T16:30:41.443Z,3.70
2023-04-20T16:33:07.859Z,4.43
2023-04-20T16:35:34.823Z,4.93
2023-04-20T16:38:03.589Z,3.08
2023-04-20T16:40:29.863Z,3.65
2023-04-20T16:42:56.203Z,4.82
2023-04-20T16:45:22.588Z,3.22
2023-04-20T16:47:49.028Z,7.75
2023-04-20T16:50:19.386Z,5.60
2023-04-20T16:52:49.143Z,7.85
2023-04-20T16:55:15.522Z,4.88
2023-04-20T16:57:44.814Z,4.57
2023-04-20T17:00:14.692Z,4.53
2023-04-20T17:02:41.123Z,5.47
2023-04-20T17:05:07.855Z,4.22
2023-04-20T17:07:36.227Z,7.72
2023-04-20T17:10:02.587Z,3.85
2023-04-20T17:12:29.402Z,5.60
2023-04-20T17:14:55.871Z,5.53
2023-04-20T17:17:22.224Z,5.63
2023-04-20T17:19:48.599Z,6.07
2023-04-20T17:22:14.943Z,4.80
2023-04-20T17:24:41.279Z,5.22
2023-04-20T17:27:07.644Z,6.78
2023-04-20T17:29:38.232Z,5.95
2023-04-20T17:32:05.132Z,5.43
2023-04-20T17:34:31.505Z,7.30
2023-04-20T17:36:57.827Z,4.78
2023-04-20T17:39:24.410Z,11.13
2023-04-20T17:41:53.328Z,6.47
2023-04-20T17:44:20.323Z,6.78
2023-04-20T17:46:46.940Z,9.05
2023-04-20T17:49:13.407Z,12.38
2023-04-20T17:51:39.753Z,9.25
2023-04-20T17:54:07.700Z,7.75
2023-04-20T17:56:34.136Z,10.32
2023-04-20T17:59:00.395Z,7.55
2023-04-20T18:01:28.006Z,11.60
2023-04-20T18:03:56.458Z,7.68
2023-04-20T18:06:22.925Z,10.18
2023-04-20T18:08:49.284Z,10.55
2023-04-20T18:11:15.630Z,13.70
2023-04-20T18:13:41.891Z,9.23
2023-04-20T18:16:08.403Z,12.18
2023-04-20T18:18:34.881Z,7.35
2023-04-20T18:21:01.301Z,7.20
2023-04-20T18:23:27.958Z,8.35
2023-04-20T18:25:54.270Z,8.15
2023-04-20T18:28:20.615Z,12.45
2023-04-20T18:30:46.889Z,12.70
2023-04-20T18:33:15.323Z,7.75
2023-04-20T18:35:42.894Z,8.57
2023-04-20T18:38:09.313Z,8.63
2023-04-20T18:40:35.902Z,13.77
2023-04-20T18:43:02.290Z,8.07
2023-04-20T18:45:28.922Z,10.13
2023-04-20T18:47:56.305Z,9.63
2023-04-20T18:50:22.681Z,7.22
2023-04-20T18:52:48.957Z,6.55
2023-04-20T18:55:15.362Z,8.48
2023-04-20T18:57:41.670Z,7.07
2023-04-20T19:00:09.259Z,7.95
2023-04-20T19:02:35.977Z,7.25
2023-04-20T19:05:02.440Z,7.43
2023-04-20T19:07:28.940Z,7.20
2023-04-20T19:09:55.383Z,7.07
2023-04-20T19:12:21.701Z,7.35
2023-04-20T19:14:49.209Z,6.68
2023-04-20T19:17:15.946Z,7.40
2023-04-20T19:19:42.432Z,8.05
2023-04-20T19:22:11.112Z,5.90
2023-04-20T19:24:37.483Z,4.63
2023-04-20T19:27:03.811Z,6.13
2023-04-20T19:29:30.226Z,7.35
2023-04-20T19:31:56.629Z,5.05
2023-04-20T19:34:23.031Z,4.53
2023-04-20T19:36:50.705Z,5.78
2023-04-20T19:39:23.968Z,6.25
2023-04-20T19:41:50.358Z,7.40
2023-04-20T19:44:18.266Z,4.82
2023-04-20T19:46:44.831Z,5.40
2023-04-20T19:49:13.749Z,5.05
2023-04-20T19:51:40.018Z,4.45
2023-04-20T19:54:06.366Z,6.20
2023-04-20T19:56:33.641Z,6.40
2023-04-20T19:58:59.940Z,7.35
2023-04-20T20:01:26.321Z,4.32
2023-04-20T20:03:52.714Z,10.35
2023-04-20T20:06:19.549Z,5.38
2023-04-20T20:08:46.281Z,6.43
2023-04-20T20:11:12.748Z,6.00
2023-04-20T20:13:39.100Z,4.72
2023-04-20T20:16:05.511Z,4.25
2023-04-20T20:18:31.923Z,4.68
2023-04-20T20:20:58.196Z,6.13
2023-04-20T20:23:24.494Z,6.65
2023-04-20T20:25:50.994Z,7.32
2023-04-20T20:28:17.435Z,5.35
2023-04-20T20:30:45.181Z,6.70
2023-04-20T20:33:12.101Z,6.32
2023-04-20T20:35:38.494Z,5.45
2023-04-20T20:38:07.675Z,6.40
2023-04-20T20:40:34.756Z,4.07
2023-04-20T20:43:01.509Z,5.45
2023-04-20T20:45:28.940Z,4.70
2023-04-20T20:47:55.537Z,4.60
2023-04-20T20:50:22.725Z,4.88
2023-04-20T20:52:49.450Z,6.43
2023-04-20T20:55:15.715Z,5.47
2023-04-20T20:57:42.062Z,3.83
2023-04-20T21:00:09.973Z,3.63
2023-04-20T21:02:36.980Z,4.35
2023-04-20T21:05:03.696Z,6.05
2023-04-20T21:07:30.127Z,4.70
2023-04-20T21:09:56.618Z,3.78
2023-04-20T21:12:23.056Z,4.85
2023-04-20T21:14:51.295Z,4.38
2023-04-20T21:17:17.896Z,4.40
2023-04-20T21:19:44.142Z,4.97
2023-04-20T21:22:10.478Z,5.43
2023-04-20T21:24:36.822Z,3.63
2023-04-20T21:27:03.052Z,5.63
2023-04-20T21:29:29.653Z,5.15
2023-04-20T21:31:55.963Z,4.10
2023-04-20T21:34:22.284Z,5.10
2023-04-20T21:36:48.607Z,3.33
2023-04-20T21:39:15.238Z,3.65
2023-04-20T21:41:41.551Z,6.10
2023-04-20T21:44:07.890Z,4.13
2023-04-20T21:46:34.268Z,4.45
2023-04-20T21:49:00.783Z,4.60
2023-04-20T21:51:27.761Z,5.00
2023-04-20T21:53:53.996Z,4.22
2023-04-20T21:56:20.275Z,4.75
2023-04-20T21:58:46.538Z,4.20
2023-04-20T22:01:12.836Z,3.83
2023-04-20T22:03:39.455Z,4.20
2023-04-20T22:06:06.431Z,4.57
2023-04-20T22:08:32.751Z,4.22
2023-04-20T22:10:59.002Z,5.65
2023-04-20T22:13:25.411Z,3.72
2023-04-20T22:15:52.712Z,3.28
2023-04-20T22:18:19.464Z,4.53
2023-04-20T22:20:46.096Z,4.90
2023-04-20T22:23:12.401Z,4.43
2023-04-20T22:25:38.758Z,4.25
2023-04-20T22:28:05.055Z,4.38
2023-04-20T22:30:31.345Z,4.45
2023-04-20T22:32:57.627Z,4.45
2023-04-20T22:35:23.905Z,3.75
2023-04-20T22:37:50.358Z,4.40
2023-04-20T22:40:16.681Z,3.53
2023-04-20T22:42:43.044Z,4.78
2023-04-20T22:45:10.820Z,4.88
2023-04-20T22:47:37.726Z,3.95
2023-04-20T22:50:04.583Z,4.18
2023-04-20T22:52:30.903Z,4.35
2023-04-20T22:54:57.255Z,3.90
2023-04-20T22:57:23.587Z,4.18
2023-04-20T22:59:49.897Z,5.00
2023-04-20T23:02:18.223Z,4.60
2023-04-20T23:04:44.688Z,4.30
2023-04-20T23:07:11.393Z,4.55
2023-04-20T23:09:42.125Z,4.18
2023-04-20T23:12:11.731Z,3.67
2023-04-20T23:14:39.086Z,4.80
2023-04-20T23:17:06.302Z,4.30
2023-04-20T23:19:32.949Z,4.90
2023-04-20T23:21:59.529Z,4.78
2023-04-20T23:24:25.794Z,3.72
2023-04-20T23:26:52.087Z,5.53
2023-04-20T23:29:18.578Z,3.80
2023-04-20T23:31:45.392Z,5.55
2023-04-20T23:34:11.839Z,4.85
2023-04-20T23:36:38.149Z,5.47
2023-04-20T23:39:05.731Z,4.07
2023-04-20T23:41:32.065Z,5.28
2023-04-20T23:43:58.369Z,4.72
2023-04-20T23:46:24.742Z,4.82
2023-04-20T23:48:51.574Z,4.78
2023-04-20T23:51:18.309Z,4.55
2023-04-20T23:53:44.605Z,4.43
2023-04-20T23:56:11.019Z,5.15
2023-04-20T23:58:38.041Z,4.60
